Observation Tools

American beautyberry Photo courtesy of Dolly Cummings, Camp Bayou.

American beautyberry (Callicarpa americana)


Also Known As: Beautybush, French mulberry
Plant Family: Verbenaceae
Project BudBurst Plant Group: Deciduous Trees and Shrubs

Identification Hints: American beautyberry has opposite, green leaves (hairy below) with very prominent veins. The flowers are small, lavender, and grow in clusters in the axils of the leaves. The flowers will develop into bright purple to pinkish colored berries. It is a shrub found mainly inthe southeastern United States.

Did you Know? American beautyberry flowers between April and October in many Southern states. It is a very common ornamental shrub in landscaping. The fruits of beautyberry have been used in jams and are enjoyed bymany species of birds.


Live Map for American beautyberry

Other years available for viewing:

Below you can view all observations that have been reported in for American beautyberry (If the map below is empty then there have not been any observations reported.)

Use the navigation buttons on the left to zoom in/out and pan around. Click on each place marker to get detail information about that observation.

Leaf/Needles/Stalk = Leaf/Needles/Stalk Flower = Flower Pollen = Pollen Fruiting = Fruiting Color = Color

--Back to Top--

close help window button

The table below displays all the data that has been submitted to Project BudBurst. By default, the data is sorted by the date on which the phenophase occurred. Clicking the up and down arrows next to each column name allows you to sort on any value. If there have been more than 10 observations submitted, you can choose how many to display at a time using the "Show __ entries" control. You can also page through the data using the previous and next buttons at the bottom right of the table.

The Search box allows you to search all of the data. Searching by date, species, phenophase, etc. is easy—just start typing and the table will immediately change to contain only observations that contain your search phrase. Do you want to see only 2012 observations? Just type "2012" in the search box. Only want to see maples? Enter "Acer." You can combine searches, too! Searching for "acer 2012" will narrow your results to only the maples that were observed in 2012 (assuming that any observations exist, of course).

Once you have your results in the order desired, you can use any of the buttons above the search box to copy the results to the clipboard; save them as a text, or spreadsheet; or even print them from your browser!

Observational data for American beautyberry:

help button
Date Contributor Common Name Species Phenophase Latitude Longitude Obs#
Sun Oct 06 00:00:00 GMT 2013 cornerstonescience American beautyberry Callicarpa americana Fruit (Middle) 30.479300000000000 -84.246700000000000 22494
Fri Oct 11 00:00:00 GMT 2013 CTS American beautyberry Callicarpa americana Full Fruiting 25.611200000000000 -80.398800000000000 22554
Sun Oct 20 00:00:00 GMT 2013 cornerstonescience American beautyberry Callicarpa americana Full Fruiting 30.611800000000000 -84.353900000000000 22679
Sun Oct 20 00:00:00 GMT 2013 katherine_kovach American beautyberry Callicarpa americana Fruit (Middle) 36.012700000000000 -78.904500000000000 22672
Tue Oct 01 00:00:00 GMT 2013 Nectarlane American beautyberry Callicarpa americana First Ripe Fruit 40.168200000000000 -74.813500000000000 22678
Tue Oct 29 00:00:00 GMT 2013 rebeccakurson American beautyberry Callicarpa americana 50% Leaf Fall 40.777300000000000 -74.252300000000000 22825
Wed Oct 09 00:00:00 GMT 2013 Nectarlane American beautyberry Callicarpa americana Full Fruiting 40.168200000000000 -74.813500000000000 23123
Mon Mar 24 00:00:00 GMT 2014 Millyloop American beautyberry Callicarpa americana Leaves Unfolding (Early) 29.889200000000000 -95.527600000000000 27449
Mon Mar 24 00:00:00 GMT 2014 Millyloop American beautyberry Callicarpa americana Leaves Changing Color (Late) 29.889200000000000 -95.527600000000000 27450
Mon Mar 24 00:00:00 GMT 2014 Millyloop American beautyberry Callicarpa americana Leaves Dropping (Late) 29.889200000000000 -95.527600000000000 27451
Mon Mar 24 00:00:00 GMT 2014 Millyloop American beautyberry Callicarpa americana Flowers (Early) 29.889200000000000 -95.527600000000000 27452
Mon Mar 24 00:00:00 GMT 2014 Millyloop American beautyberry Callicarpa americana Fruit (Middle) 29.889200000000000 -95.527600000000000 27453
Mon Mar 24 00:00:00 GMT 2014 Millyloop American beautyberry Callicarpa americana Leaves Unfolding (Early) 29.889200000000000 -95.527600000000000 27444
Mon Mar 24 00:00:00 GMT 2014 Millyloop American beautyberry Callicarpa americana Leaves Changing Color (Late) 29.889200000000000 -95.527600000000000 27445
Mon Mar 24 00:00:00 GMT 2014 Millyloop American beautyberry Callicarpa americana Leaves Dropping (Late) 29.889200000000000 -95.527600000000000 27446
Mon Mar 24 00:00:00 GMT 2014 Millyloop American beautyberry Callicarpa americana Flowers (Early) 29.889200000000000 -95.527600000000000 27447
Mon Mar 24 00:00:00 GMT 2014 Millyloop American beautyberry Callicarpa americana Fruit (Middle) 29.889200000000000 -95.527600000000000 27448
Mon Apr 14 00:00:00 GMT 2014 bfiedel3 American beautyberry Callicarpa americana Leaves Unfolding (None) 39.103070000000000 -86.308720000000000 29157
Mon Apr 14 00:00:00 GMT 2014 bfiedel3 American beautyberry Callicarpa americana Leaves Changing Color (None) 39.103070000000000 -86.308720000000000 29158
Mon Apr 14 00:00:00 GMT 2014 bfiedel3 American beautyberry Callicarpa americana Leaves Dropping (None) 39.103070000000000 -86.308720000000000 29159
Mon Apr 14 00:00:00 GMT 2014 bfiedel3 American beautyberry Callicarpa americana Flowers (Early) 39.103070000000000 -86.308720000000000 29160
Mon Apr 14 00:00:00 GMT 2014 bfiedel3 American beautyberry Callicarpa americana Fruit (None) 39.103070000000000 -86.308720000000000 29161
Sun May 04 00:00:00 GMT 2014 bminor American beautyberry Callicarpa americana Bud Burst 37.902300000000000 -78.484400000000000 31644
Fri May 23 00:00:00 GMT 2014 bminor American beautyberry Callicarpa americana First Leaf 37.902300000000000 -78.484400000000000 33161
Mon Jun 02 00:00:00 GMT 2014 bminor American beautyberry Callicarpa americana All Leaves Unfolded 37.902300000000000 -78.484400000000000 33162
Sun Jun 22 00:00:00 GMT 2014 bayfawn American beautyberry Callicarpa americana First Flower 39.448260000000000 -76.267280000000000 34244
Tue Jul 08 00:00:00 GMT 2014 bminor American beautyberry Callicarpa americana First Flower 37.902300000000000 -78.484400000000000 34531
Sun Jul 13 00:00:00 GMT 2014 bayfawn American beautyberry Callicarpa americana Full Flower 39.448260000000000 -76.267280000000000 34543
Mon Jul 14 00:00:00 GMT 2014 bminor American beautyberry Callicarpa americana Full Flower 37.902300000000000 -78.484400000000000 34555
Sun Aug 24 00:00:00 GMT 2014 bayfawn American beautyberry Callicarpa americana First Ripe Fruit 39.448260000000000 -76.267280000000000 35045
Sun Sep 07 00:00:00 GMT 2014 bayfawn American beautyberry Callicarpa americana Full Fruiting 39.448260000000000 -76.267280000000000 35833
Mon Sep 08 00:00:00 GMT 2014 bminor American beautyberry Callicarpa americana First Ripe Fruit 37.902300000000000 -78.484400000000000 35881
Wed Sep 24 00:00:00 GMT 2014 bminor American beautyberry Callicarpa americana Full Fruiting 37.902300000000000 -78.484400000000000 35882
Mon Oct 20 00:00:00 GMT 2014 JCRABudBurst American beautyberry Callicarpa americana Leaves Unfolding (Late) 35.794930000000000 -78.700290000000000 39150
Mon Oct 20 00:00:00 GMT 2014 JCRABudBurst American beautyberry Callicarpa americana Leaves Changing Color (Early) 35.794930000000000 -78.700290000000000 39151
Mon Oct 20 00:00:00 GMT 2014 JCRABudBurst American beautyberry Callicarpa americana Leaves Dropping (None) 35.794930000000000 -78.700290000000000 39152
Mon Oct 20 00:00:00 GMT 2014 JCRABudBurst American beautyberry Callicarpa americana Flowers (None) 35.794930000000000 -78.700290000000000 39153
Mon Oct 20 00:00:00 GMT 2014 JCRABudBurst American beautyberry Callicarpa americana Fruit (Late) 35.794930000000000 -78.700290000000000 39154
Wed Oct 29 00:00:00 GMT 2014 JaxZooEdu American beautyberry Callicarpa americana 50% Color 30.402663000000000 -81.641142000000000 39523
Thu Nov 27 00:00:00 GMT 2014 JaxZooEdu American beautyberry Callicarpa americana 50% Leaf Fall 30.402663000000000 -81.641142000000000 42640
Tue May 13 00:00:00 GMT 2014 bettyh American beautyberry Callicarpa americana First Leaf 38.920400000000000 -77.276500000000000 42952
Thu Jul 31 00:00:00 GMT 2014 bettyh American beautyberry Callicarpa americana First Flower 38.920400000000000 -77.276500000000000 42953
Sat Jun 20 00:00:00 GMT 2015 bayfawn American beautyberry Callicarpa americana Full Flower 39.448260000000000 -76.267280000000000 51294
Wed Jun 17 00:00:00 GMT 2015 bayfawn American beautyberry Callicarpa americana First Flower 39.448260000000000 -76.267280000000000 51293
Mon Sep 28 00:00:00 GMT 2015 robinv1_Washington_College_reporter61 American beautyberry Callicarpa americana Leaves Unfolding (Late) 39.207410000000000 -76.108800000000000 60076
Mon Sep 28 00:00:00 GMT 2015 robinv1_Washington_College_reporter61 American beautyberry Callicarpa americana Leaves Changing Color (Early) 39.207410000000000 -76.108800000000000 60077
Mon Sep 28 00:00:00 GMT 2015 robinv1_Washington_College_reporter61 American beautyberry Callicarpa americana Leaves Dropping (None) 39.207410000000000 -76.108800000000000 60078
Mon Sep 28 00:00:00 GMT 2015 robinv1_Washington_College_reporter61 American beautyberry Callicarpa americana Flowers (Middle) 39.207410000000000 -76.108800000000000 60079
Mon Sep 28 00:00:00 GMT 2015 robinv1_Washington_College_reporter61 American beautyberry Callicarpa americana Fruit (Middle) 39.207410000000000 -76.108800000000000 60080
Mon Oct 05 00:00:00 GMT 2015 robinv1_Washington_College_reporter61 American beautyberry Callicarpa americana Leaves Unfolding (Late) 39.207410000000000 -76.108800000000000 60096
Mon Oct 05 00:00:00 GMT 2015 robinv1_Washington_College_reporter61 American beautyberry Callicarpa americana Leaves Changing Color (Middle) 39.207410000000000 -76.108800000000000 60097
Mon Oct 05 00:00:00 GMT 2015 robinv1_Washington_College_reporter61 American beautyberry Callicarpa americana Leaves Dropping (Early) 39.207410000000000 -76.108800000000000 60098
Mon Oct 05 00:00:00 GMT 2015 robinv1_Washington_College_reporter61 American beautyberry Callicarpa americana Flowers (Middle) 39.207410000000000 -76.108800000000000 60099
Mon Oct 05 00:00:00 GMT 2015 robinv1_Washington_College_reporter61 American beautyberry Callicarpa americana Fruit (Middle) 39.207410000000000 -76.108800000000000 60100
Mon Oct 12 00:00:00 GMT 2015 robinv1_Washington_College_reporter61 American beautyberry Callicarpa americana Leaves Unfolding (Late) 39.207410000000000 -76.108800000000000 60111
Mon Oct 12 00:00:00 GMT 2015 robinv1_Washington_College_reporter61 American beautyberry Callicarpa americana Leaves Changing Color (Middle) 39.207410000000000 -76.108800000000000 60112
Mon Oct 12 00:00:00 GMT 2015 robinv1_Washington_College_reporter61 American beautyberry Callicarpa americana Leaves Dropping (Middle) 39.207410000000000 -76.108800000000000 60113
Mon Oct 12 00:00:00 GMT 2015 robinv1_Washington_College_reporter61 American beautyberry Callicarpa americana Flowers (Middle) 39.207410000000000 -76.108800000000000 60114
Mon Oct 12 00:00:00 GMT 2015 robinv1_Washington_College_reporter61 American beautyberry Callicarpa americana Fruit (Middle) 39.207410000000000 -76.108800000000000 60115
Mon Oct 19 00:00:00 GMT 2015 robinv1_Washington_College_reporter61 American beautyberry Callicarpa americana Leaves Unfolding (Late) 39.207410000000000 -76.108800000000000 60131
Mon Oct 19 00:00:00 GMT 2015 robinv1_Washington_College_reporter61 American beautyberry Callicarpa americana Leaves Changing Color (Middle) 39.207410000000000 -76.108800000000000 60132
Mon Oct 19 00:00:00 GMT 2015 robinv1_Washington_College_reporter61 American beautyberry Callicarpa americana Leaves Dropping (Middle) 39.207410000000000 -76.108800000000000 60133
Mon Oct 19 00:00:00 GMT 2015 robinv1_Washington_College_reporter61 American beautyberry Callicarpa americana Flowers (Late) 39.207410000000000 -76.108800000000000 60134
Mon Oct 19 00:00:00 GMT 2015 robinv1_Washington_College_reporter61 American beautyberry Callicarpa americana Fruit (Middle) 39.207410000000000 -76.108800000000000 60135
Mon Oct 26 00:00:00 GMT 2015 robinv1_Washington_College_reporter61 American beautyberry Callicarpa americana Leaves Unfolding (Late) 39.207410000000000 -76.108800000000000 60146
Mon Oct 26 00:00:00 GMT 2015 robinv1_Washington_College_reporter61 American beautyberry Callicarpa americana Leaves Changing Color (Middle) 39.207410000000000 -76.108800000000000 60147
Mon Oct 26 00:00:00 GMT 2015 robinv1_Washington_College_reporter61 American beautyberry Callicarpa americana Leaves Dropping (Middle) 39.207410000000000 -76.108800000000000 60148
Mon Oct 26 00:00:00 GMT 2015 robinv1_Washington_College_reporter61 American beautyberry Callicarpa americana Flowers (Late) 39.207410000000000 -76.108800000000000 60149
Mon Oct 26 00:00:00 GMT 2015 robinv1_Washington_College_reporter61 American beautyberry Callicarpa americana Fruit (Middle) 39.207410000000000 -76.108800000000000 60150
Mon Nov 02 00:00:00 GMT 2015 robinv1_Washington_College_reporter61 American beautyberry Callicarpa americana Leaves Unfolding (Late) 39.207410000000000 -76.108800000000000 60161
Mon Nov 02 00:00:00 GMT 2015 robinv1_Washington_College_reporter61 American beautyberry Callicarpa americana Leaves Changing Color (Late) 39.207410000000000 -76.108800000000000 60162
Mon Nov 02 00:00:00 GMT 2015 robinv1_Washington_College_reporter61 American beautyberry Callicarpa americana Leaves Dropping (Late) 39.207410000000000 -76.108800000000000 60163
Mon Nov 02 00:00:00 GMT 2015 robinv1_Washington_College_reporter61 American beautyberry Callicarpa americana Flowers (Late) 39.207410000000000 -76.108800000000000 60164
Mon Nov 02 00:00:00 GMT 2015 robinv1_Washington_College_reporter61 American beautyberry Callicarpa americana Fruit (Late) 39.207410000000000 -76.108800000000000 60165
Mon Nov 09 00:00:00 GMT 2015 robinv1_Washington_College_reporter61 American beautyberry Callicarpa americana Leaves Unfolding (Late) 39.207410000000000 -76.108800000000000 60176
Mon Nov 09 00:00:00 GMT 2015 robinv1_Washington_College_reporter61 American beautyberry Callicarpa americana Leaves Changing Color (Late) 39.207410000000000 -76.108800000000000 60177
Mon Nov 09 00:00:00 GMT 2015 robinv1_Washington_College_reporter61 American beautyberry Callicarpa americana Leaves Dropping (Late) 39.207410000000000 -76.108800000000000 60178
Mon Nov 09 00:00:00 GMT 2015 robinv1_Washington_College_reporter61 American beautyberry Callicarpa americana Flowers (Late) 39.207410000000000 -76.108800000000000 60179
Mon Nov 09 00:00:00 GMT 2015 robinv1_Washington_College_reporter61 American beautyberry Callicarpa americana Fruit (Late) 39.207410000000000 -76.108800000000000 60180
Mon Nov 16 00:00:00 GMT 2015 robinv1_Washington_College_reporter61 American beautyberry Callicarpa americana Leaves Unfolding (Late) 39.207410000000000 -76.108800000000000 60186
Mon Nov 16 00:00:00 GMT 2015 robinv1_Washington_College_reporter61 American beautyberry Callicarpa americana Leaves Changing Color (Late) 39.207410000000000 -76.108800000000000 60187
Mon Nov 16 00:00:00 GMT 2015 robinv1_Washington_College_reporter61 American beautyberry Callicarpa americana Leaves Dropping (Late) 39.207410000000000 -76.108800000000000 60188
Mon Nov 16 00:00:00 GMT 2015 robinv1_Washington_College_reporter61 American beautyberry Callicarpa americana Flowers (Late) 39.207410000000000 -76.108800000000000 60189
Mon Nov 16 00:00:00 GMT 2015 robinv1_Washington_College_reporter61 American beautyberry Callicarpa americana Fruit (Late) 39.207410000000000 -76.108800000000000 60190
Mon Nov 30 00:00:00 GMT 2015 robinv1_Washington_College_reporter61 American beautyberry Callicarpa americana Leaves Unfolding (Late) 39.207410000000000 -76.108800000000000 60201
Mon Nov 30 00:00:00 GMT 2015 robinv1_Washington_College_reporter61 American beautyberry Callicarpa americana Leaves Changing Color (Late) 39.207410000000000 -76.108800000000000 60202
Mon Nov 30 00:00:00 GMT 2015 robinv1_Washington_College_reporter61 American beautyberry Callicarpa americana Leaves Dropping (Late) 39.207410000000000 -76.108800000000000 60203
Mon Nov 30 00:00:00 GMT 2015 robinv1_Washington_College_reporter61 American beautyberry Callicarpa americana Flowers (Late) 39.207410000000000 -76.108800000000000 60204
Mon Nov 30 00:00:00 GMT 2015 robinv1_Washington_College_reporter61 American beautyberry Callicarpa americana Fruit (Late) 39.207410000000000 -76.108800000000000 60205
Fri Mar 18 00:00:00 GMT 2016 JamiMercer American beautyberry Callicarpa americana Leaves Unfolding (Late) 26.108520000000000 -81.771410000000000 62758
Fri Mar 18 00:00:00 GMT 2016 JamiMercer American beautyberry Callicarpa americana Leaves Changing Color (None) 26.108520000000000 -81.771410000000000 62759
Fri Mar 18 00:00:00 GMT 2016 JamiMercer American beautyberry Callicarpa americana Leaves Dropping (None) 26.108520000000000 -81.771410000000000 62760
Fri Mar 18 00:00:00 GMT 2016 JamiMercer American beautyberry Callicarpa americana Flowers (None) 26.108520000000000 -81.771410000000000 62761
Fri Mar 18 00:00:00 GMT 2016 JamiMercer American beautyberry Callicarpa americana Fruit (None) 26.108520000000000 -81.771410000000000 62762
Mon Mar 21 00:00:00 GMT 2016 MNC American beautyberry Callicarpa americana First Leaf 29.663511000000000 -82.279272000000000 62835
Mon Mar 21 00:00:00 GMT 2016 MNC American beautyberry Callicarpa americana Full Fruiting 29.663511000000000 -82.279272000000000 62836
Thu Mar 24 00:00:00 GMT 2016 amiranda561 American beautyberry Callicarpa americana Leaves Unfolding (Middle) 26.107000000000000 -81.772000000000000 63439
Thu Mar 24 00:00:00 GMT 2016 amiranda561 American beautyberry Callicarpa americana Leaves Changing Color (None) 26.107000000000000 -81.772000000000000 63440
Thu Mar 24 00:00:00 GMT 2016 amiranda561 American beautyberry Callicarpa americana Leaves Dropping (None) 26.107000000000000 -81.772000000000000 63441
Thu Mar 24 00:00:00 GMT 2016 amiranda561 American beautyberry Callicarpa americana Flowers (Early) 26.107000000000000 -81.772000000000000 63442
Thu Mar 24 00:00:00 GMT 2016 amiranda561 American beautyberry Callicarpa americana Fruit (Early) 26.107000000000000 -81.772000000000000 63443
Sat Mar 26 00:00:00 GMT 2016 DWK American beautyberry Callicarpa americana Bud Burst 35.547790000000000 -78.533070000000000 63632
Thu Apr 21 00:00:00 GMT 2016 JCRABudBurst American beautyberry Callicarpa americana Leaves Unfolding (Middle) 35.794840000000000 -78.700090000000000 67361
Thu Apr 21 00:00:00 GMT 2016 JCRABudBurst American beautyberry Callicarpa americana Leaves Changing Color (Middle) 35.794840000000000 -78.700090000000000 67362
Thu Apr 21 00:00:00 GMT 2016 JCRABudBurst American beautyberry Callicarpa americana Leaves Dropping (Early) 35.794840000000000 -78.700090000000000 67363
Thu Apr 21 00:00:00 GMT 2016 JCRABudBurst American beautyberry Callicarpa americana Flowers (Late) 35.794840000000000 -78.700090000000000 67364
Thu Apr 21 00:00:00 GMT 2016 JCRABudBurst American beautyberry Callicarpa americana Fruit (Late) 35.794840000000000 -78.700090000000000 67365
Tue Apr 21 00:00:00 GMT 2015 JCRABudBurst American beautyberry Callicarpa americana Leaves Unfolding (Middle) 35.794840000000000 -78.700090000000000 67366
Tue Apr 21 00:00:00 GMT 2015 JCRABudBurst American beautyberry Callicarpa americana Leaves Changing Color (Middle) 35.794840000000000 -78.700090000000000 67367
Tue Apr 21 00:00:00 GMT 2015 JCRABudBurst American beautyberry Callicarpa americana Leaves Dropping (Early) 35.794840000000000 -78.700090000000000 67368
Tue Apr 21 00:00:00 GMT 2015 JCRABudBurst American beautyberry Callicarpa americana Flowers (Late) 35.794840000000000 -78.700090000000000 67369
Tue Apr 21 00:00:00 GMT 2015 JCRABudBurst American beautyberry Callicarpa americana Fruit (Late) 35.794840000000000 -78.700090000000000 67370
Tue Oct 25 00:00:00 GMT 2016 EMIKELLW American beautyberry Callicarpa americana 50% Leaf Fall 35.262080000000000 -81.187300000000000 71123
Tue Jan 31 00:00:00 GMT 2017 bkanoy_MS_Raingarden_reporter9 American beautyberry Callicarpa americana Leaves Unfolding (None) 40.000000000000000 -100.000000000000000 74594
Tue Jan 31 00:00:00 GMT 2017 bkanoy_MS_Raingarden_reporter9 American beautyberry Callicarpa americana Leaves Changing Color (None) 40.000000000000000 -100.000000000000000 74595
Tue Jan 31 00:00:00 GMT 2017 bkanoy_MS_Raingarden_reporter9 American beautyberry Callicarpa americana Leaves Dropping (Late) 40.000000000000000 -100.000000000000000 74596
Tue Jan 31 00:00:00 GMT 2017 bkanoy_MS_Raingarden_reporter9 American beautyberry Callicarpa americana Flowers (Late) 40.000000000000000 -100.000000000000000 74597
Tue Jan 31 00:00:00 GMT 2017 bkanoy_MS_Raingarden_reporter9 American beautyberry Callicarpa americana Fruit (Late) 40.000000000000000 -100.000000000000000 74598
Tue Jan 31 00:00:00 GMT 2017 bkanoy_MS_Raingarden_reporter7 American beautyberry Callicarpa americana Leaves Unfolding (None) 35.969120000000000 -78.945410000000000 74606
Tue Jan 31 00:00:00 GMT 2017 bkanoy_MS_Raingarden_reporter7 American beautyberry Callicarpa americana Leaves Changing Color (None) 35.969120000000000 -78.945410000000000 74607
Tue Jan 31 00:00:00 GMT 2017 bkanoy_MS_Raingarden_reporter7 American beautyberry Callicarpa americana Leaves Dropping (None) 35.969120000000000 -78.945410000000000 74608
Tue Jan 31 00:00:00 GMT 2017 bkanoy_MS_Raingarden_reporter7 American beautyberry Callicarpa americana Flowers (None) 35.969120000000000 -78.945410000000000 74609
Tue Jan 31 00:00:00 GMT 2017 bkanoy_MS_Raingarden_reporter7 American beautyberry Callicarpa americana Fruit (None) 35.969120000000000 -78.945410000000000 74610
Thu Feb 23 00:00:00 GMT 2017 bkanoy_MS_Raingarden_reporter7 American beautyberry Callicarpa americana Leaves Unfolding (None) 35.969120000000000 -78.945410000000000 74997
Thu Feb 23 00:00:00 GMT 2017 bkanoy_MS_Raingarden_reporter7 American beautyberry Callicarpa americana Leaves Changing Color (None) 35.969120000000000 -78.945410000000000 74998
Thu Feb 23 00:00:00 GMT 2017 bkanoy_MS_Raingarden_reporter7 American beautyberry Callicarpa americana Leaves Dropping (Late) 35.969120000000000 -78.945410000000000 74999
Thu Feb 23 00:00:00 GMT 2017 bkanoy_MS_Raingarden_reporter7 American beautyberry Callicarpa americana Flowers (None) 35.969120000000000 -78.945410000000000 75000
Thu Feb 23 00:00:00 GMT 2017 bkanoy_MS_Raingarden_reporter7 American beautyberry Callicarpa americana Fruit (None) 35.969120000000000 -78.945410000000000 75001
Thu Feb 23 00:00:00 GMT 2017 bkanoy_MS_Raingarden_reporter9 American beautyberry Callicarpa americana Leaves Unfolding (None) 40.000000000000000 -100.000000000000000 75005
Thu Feb 23 00:00:00 GMT 2017 bkanoy_MS_Raingarden_reporter9 American beautyberry Callicarpa americana Leaves Changing Color (None) 40.000000000000000 -100.000000000000000 75006
Thu Feb 23 00:00:00 GMT 2017 bkanoy_MS_Raingarden_reporter9 American beautyberry Callicarpa americana Leaves Dropping (None) 40.000000000000000 -100.000000000000000 75007
Thu Feb 23 00:00:00 GMT 2017 bkanoy_MS_Raingarden_reporter9 American beautyberry Callicarpa americana Flowers (None) 40.000000000000000 -100.000000000000000 75008
Thu Feb 23 00:00:00 GMT 2017 bkanoy_MS_Raingarden_reporter9 American beautyberry Callicarpa americana Fruit (None) 40.000000000000000 -100.000000000000000 75009
Thu Mar 09 00:00:00 GMT 2017 jeanmells American beautyberry Callicarpa americana Bud Burst 35.797400000000000 -78.634050000000000 75392
Wed Mar 01 00:00:00 GMT 2017 brosenbaum American beautyberry Callicarpa americana Bud Burst 42.148970000000000 -87.789690000000000 76448

*All downloadable materials require the free Adobe Reader.